NWC4303 ULLI-USDA
Flight info
| Callsign | NWC4303 |
|---|---|
| Flight time | N/A |
| Altitude | 35000 |
| Route | PETAP1A PETAP T821 ARGIP M58 RIGNI L168 NRM M131 ULKAM T413 BANEP W94 PIPUK PIPUK1N |
| Aircraft | A321/M-SDE3FGHIRWY/LB1 |
Departure
| Time | 2026-05-01 12:55 |
|---|---|
| Airport | Pulkovo Airport (ULLI) |
Arrival
| Time | N/A |
|---|---|
| Airport | Sabetta International Airport (USDA) |
| Time | Latitude | Longitude | Altitude | Speed | Heading |
|---|---|---|---|---|---|
| 2026-05-01 12:35 | 59.80304 | 30.26227 | 86 ft | 0 kts | 286° |
| 2026-05-01 12:44 | 59.80303 | 30.26231 | 77 ft | 2 kts | 286° |
| 2026-05-01 12:45 | 59.80288 | 30.26331 | 81 ft | 4 kts | 290° |
| 2026-05-01 12:45 | 59.80277 | 30.26377 | 78 ft | 4 kts | 310° |
| 2026-05-01 12:45 | 59.80257 | 30.26408 | 82 ft | 4 kts | 350° |
| 2026-05-01 12:46 | 59.80241 | 30.26407 | 82 ft | 1 kts | 16° |
| 2026-05-01 12:46 | 59.80238 | 30.26406 | 81 ft | 0 kts | 16° |
| 2026-05-01 12:48 | 59.80261 | 30.26419 | 82 ft | 10 kts | 16° |
| 2026-05-01 12:48 | 59.80372 | 30.26455 | 81 ft | 19 kts | 16° |
| 2026-05-01 12:48 | 59.80434 | 30.26608 | 80 ft | 15 kts | 99° |
| 2026-05-01 12:48 | 59.80406 | 30.26792 | 77 ft | 14 kts | 107° |
| 2026-05-01 12:49 | 59.80376 | 30.26986 | 80 ft | 15 kts | 107° |
| 2026-05-01 12:49 | 59.80346 | 30.27201 | 83 ft | 17 kts | 105° |
| 2026-05-01 12:49 | 59.80309 | 30.27446 | 80 ft | 22 kts | 107° |
| 2026-05-01 12:49 | 59.80255 | 30.27802 | 81 ft | 31 kts | 107° |
| 2026-05-01 12:50 | 59.80195 | 30.28200 | 78 ft | 30 kts | 107° |
| 2026-05-01 12:50 | 59.80141 | 30.28567 | 67 ft | 24 kts | 106° |
| 2026-05-01 12:50 | 59.80093 | 30.28883 | 66 ft | 23 kts | 107° |
| 2026-05-01 12:50 | 59.80048 | 30.29183 | 74 ft | 22 kts | 106° |
| 2026-05-01 12:51 | 59.80006 | 30.29476 | 71 ft | 22 kts | 107° |
| 2026-05-01 12:51 | 59.79963 | 30.29754 | 70 ft | 21 kts | 107° |
| 2026-05-01 12:51 | 59.79935 | 30.29975 | 67 ft | 4 kts | 91° |
| 2026-05-01 12:52 | 59.79959 | 30.30075 | 65 ft | 13 kts | 44° |
| 2026-05-01 12:52 | 59.79995 | 30.30145 | 71 ft | 0 kts | 46° |
| 2026-05-01 12:52 | 59.80012 | 30.30181 | 66 ft | 8 kts | 46° |
| 2026-05-01 12:53 | 59.80125 | 30.30190 | 70 ft | 0 kts | 287° |
| 2026-05-01 12:54 | 59.80127 | 30.30175 | 63 ft | 7 kts | 287° |
| 2026-05-01 12:54 | 59.80429 | 30.28182 | 75 ft | 134 kts | 287° |
| 2026-05-01 12:54 | 59.80734 | 30.26154 | 237 ft | 162 kts | 287° |
| 2026-05-01 12:55 | 59.81421 | 30.21848 | 1431 ft | 165 kts | 287° |
| 2026-05-01 12:55 | 59.81748 | 30.19668 | 1903 ft | 171 kts | 285° |
| 2026-05-01 12:55 | 59.82094 | 30.17247 | 2071 ft | 193 kts | 285° |
| 2026-05-01 12:56 | 59.82481 | 30.14524 | 2239 ft | 215 kts | 285° |
| 2026-05-01 12:56 | 59.82916 | 30.11489 | 2452 ft | 240 kts | 285° |
| 2026-05-01 12:56 | 59.83385 | 30.08239 | 3120 ft | 247 kts | 286° |
| 2026-05-01 12:56 | 59.83865 | 30.04933 | 3942 ft | 250 kts | 286° |
| 2026-05-01 12:57 | 59.84350 | 30.01613 | 4759 ft | 254 kts | 287° |
| 2026-05-01 12:57 | 59.85783 | 29.95141 | 6305 ft | 260 kts | 305° |
| 2026-05-01 12:57 | 59.86792 | 29.92132 | 7092 ft | 262 kts | 305° |
| 2026-05-01 12:58 | 59.87798 | 29.89135 | 7822 ft | 264 kts | 306° |
| 2026-05-01 12:58 | 59.88819 | 29.86093 | 8572 ft | 266 kts | 306° |
| 2026-05-01 12:58 | 59.89858 | 29.82997 | 9328 ft | 268 kts | 306° |
| 2026-05-01 12:59 | 59.92330 | 29.77533 | 10713 ft | 268 kts | 331° |
| 2026-05-01 12:59 | 59.94048 | 29.76122 | 11385 ft | 268 kts | 348° |
| 2026-05-01 12:59 | 59.97890 | 29.76046 | 12141 ft | 295 kts | 2° |
| 2026-05-01 13:00 | 60.02328 | 29.76565 | 12161 ft | 337 kts | 2° |
| 2026-05-01 13:00 | 60.04669 | 29.76840 | 12166 ft | 342 kts | 2° |
| 2026-05-01 13:01 | 60.09445 | 29.77406 | 12166 ft | 343 kts | 2° |
| 2026-05-01 13:01 | 60.11834 | 29.77685 | 12163 ft | 343 kts | 2° |
| 2026-05-01 13:01 | 60.16588 | 29.78236 | 12470 ft | 347 kts | 1° |
| 2026-05-01 13:02 | 60.19006 | 29.78512 | 13197 ft | 348 kts | 1° |
| 2026-05-01 13:07 | 60.55705 | 30.54302 | 23437 ft | 418 kts | 52° |
| 2026-05-01 13:07 | 60.57186 | 30.59432 | 23830 ft | 420 kts | 52° |
| 2026-05-01 13:07 | 60.58657 | 30.64520 | 24161 ft | 422 kts | 52° |
| 2026-05-01 13:08 | 60.60154 | 30.69711 | 24484 ft | 425 kts | 53° |
| 2026-05-01 13:08 | 60.61649 | 30.74916 | 24802 ft | 427 kts | 53° |
| 2026-05-01 13:08 | 60.63156 | 30.80176 | 25132 ft | 429 kts | 53° |
| 2026-05-01 13:08 | 60.64662 | 30.85433 | 25442 ft | 431 kts | 53° |
| 2026-05-01 13:09 | 60.66177 | 30.90730 | 25751 ft | 433 kts | 53° |
| 2026-05-01 13:09 | 60.67682 | 30.95999 | 26051 ft | 435 kts | 53° |
| 2026-05-01 13:09 | 60.69211 | 31.01357 | 26341 ft | 437 kts | 53° |
| 2026-05-01 13:09 | 60.70748 | 31.06759 | 26646 ft | 439 kts | 53° |
| 2026-05-01 13:10 | 60.72284 | 31.12177 | 26952 ft | 441 kts | 53° |
| 2026-05-01 13:10 | 60.73826 | 31.17635 | 27198 ft | 445 kts | 53° |
| 2026-05-01 13:10 | 60.75361 | 31.23071 | 27476 ft | 447 kts | 54° |
| 2026-05-01 13:10 | 60.76919 | 31.28607 | 27763 ft | 449 kts | 54° |
| 2026-05-01 13:11 | 60.78479 | 31.34162 | 28046 ft | 451 kts | 54° |
| 2026-05-01 13:11 | 60.80043 | 31.39758 | 28427 ft | 450 kts | 54° |
| 2026-05-01 13:11 | 60.81593 | 31.45326 | 28817 ft | 449 kts | 54° |
| 2026-05-01 13:11 | 60.83126 | 31.50839 | 29201 ft | 448 kts | 54° |
| 2026-05-01 13:12 | 60.84670 | 31.56389 | 29584 ft | 448 kts | 54° |
| 2026-05-01 13:12 | 60.85713 | 31.60144 | 29838 ft | 447 kts | 54° |
| 2026-05-01 13:12 | 60.87230 | 31.65618 | 30199 ft | 447 kts | 54° |
| 2026-05-01 13:12 | 60.88762 | 31.71159 | 30522 ft | 446 kts | 54° |
| 2026-05-01 13:13 | 60.90290 | 31.76700 | 30833 ft | 445 kts | 54° |
| 2026-05-01 13:13 | 60.91815 | 31.82249 | 31160 ft | 444 kts | 54° |
| 2026-05-01 13:13 | 60.93332 | 31.87785 | 31599 ft | 441 kts | 54° |
| 2026-05-01 13:13 | 60.94813 | 31.93215 | 32054 ft | 437 kts | 54° |
| 2026-05-01 13:14 | 60.96331 | 31.98612 | 32442 ft | 432 kts | 50° |
| 2026-05-01 13:14 | 60.98128 | 32.03503 | 32798 ft | 424 kts | 42° |
| 2026-05-01 13:14 | 61.00186 | 32.07791 | 33141 ft | 419 kts | 38° |
| 2026-05-01 13:14 | 61.02284 | 32.11961 | 33490 ft | 417 kts | 38° |
| 2026-05-01 13:15 | 61.04371 | 32.16122 | 33845 ft | 416 kts | 38° |
| 2026-05-01 13:15 | 61.06450 | 32.20283 | 34173 ft | 415 kts | 38° |
| 2026-05-01 13:15 | 61.08494 | 32.24399 | 34428 ft | 415 kts | 38° |
| 2026-05-01 13:15 | 61.10566 | 32.28587 | 34668 ft | 415 kts | 38° |
| 2026-05-01 13:16 | 61.12642 | 32.32791 | 34866 ft | 417 kts | 38° |
| 2026-05-01 13:16 | 61.14714 | 32.36996 | 35055 ft | 418 kts | 38° |
| 2026-05-01 13:16 | 61.16768 | 32.41166 | 35133 ft | 418 kts | 38° |
| 2026-05-01 13:17 | 61.25067 | 32.58095 | 35135 ft | 417 kts | 39° |
| 2026-05-01 13:18 | 61.31287 | 32.70656 | 35130 ft | 416 kts | 38° |
| 2026-05-01 13:18 | 61.35508 | 32.78980 | 35146 ft | 416 kts | 37° |
| 2026-05-01 13:19 | 61.39719 | 32.87345 | 35132 ft | 417 kts | 38° |
| 2026-05-01 13:20 | 61.45980 | 32.99904 | 35128 ft | 417 kts | 38° |
| 2026-05-01 13:20 | 61.49792 | 33.09091 | 35113 ft | 423 kts | 46° |
| 2026-05-01 13:21 | 61.55211 | 33.23699 | 35125 ft | 424 kts | 45° |
| 2026-05-01 13:21 | 61.58833 | 33.33500 | 35111 ft | 425 kts | 45° |
| 2026-05-01 13:22 | 61.62453 | 33.43336 | 35100 ft | 425 kts | 45° |
| 2026-05-01 13:22 | 61.66058 | 33.53158 | 35085 ft | 425 kts | 46° |
| 2026-05-01 13:23 | 61.69665 | 33.63043 | 35080 ft | 425 kts | 46° |
| 2026-05-01 13:23 | 61.73274 | 33.72972 | 35068 ft | 426 kts | 46° |
| 2026-05-01 13:24 | 61.76875 | 33.82927 | 35082 ft | 427 kts | 46° |
| 2026-05-01 13:25 | 61.82253 | 33.97889 | 35067 ft | 428 kts | 46° |
| 2026-05-01 13:25 | 61.85846 | 34.07948 | 35066 ft | 428 kts | 46° |
| 2026-05-01 13:26 | 61.89673 | 34.17473 | 35062 ft | 418 kts | 35° |
| 2026-05-01 13:26 | 61.94128 | 34.25366 | 35087 ft | 416 kts | 34° |
| 2026-05-01 13:27 | 61.98539 | 34.33218 | 35064 ft | 414 kts | 34° |
| 2026-05-01 13:27 | 62.05128 | 34.45074 | 35059 ft | 413 kts | 34° |
| 2026-05-01 13:28 | 62.11700 | 34.56927 | 35047 ft | 413 kts | 34° |
| 2026-05-01 13:29 | 62.20482 | 34.72841 | 35071 ft | 414 kts | 34° |
| 2026-05-01 13:31 | 62.33630 | 34.96943 | 35039 ft | 415 kts | 34° |
| 2026-05-01 13:32 | 62.44539 | 35.17267 | 35052 ft | 416 kts | 35° |
| 2026-05-01 13:33 | 62.55420 | 35.38054 | 35044 ft | 417 kts | 35° |
| 2026-05-01 13:34 | 62.64093 | 35.54733 | 35034 ft | 417 kts | 35° |
| 2026-05-01 13:35 | 62.70601 | 35.67273 | 35053 ft | 418 kts | 35° |
| 2026-05-01 13:36 | 62.77132 | 35.79971 | 35038 ft | 419 kts | 35° |
| 2026-05-01 13:36 | 62.83621 | 35.92706 | 35026 ft | 420 kts | 36° |
| 2026-05-01 13:37 | 62.87972 | 36.01293 | 35025 ft | 420 kts | 36° |
| 2026-05-01 13:37 | 62.92313 | 36.09781 | 35058 ft | 420 kts | 35° |
| 2026-05-01 13:38 | 62.98890 | 36.22604 | 35034 ft | 420 kts | 35° |
| 2026-05-01 13:39 | 63.03231 | 36.31132 | 35024 ft | 420 kts | 35° |
| 2026-05-01 13:39 | 63.07584 | 36.39761 | 35033 ft | 421 kts | 36° |
| 2026-05-01 13:40 | 63.11953 | 36.48438 | 35018 ft | 421 kts | 36° |
| 2026-05-01 13:40 | 63.16282 | 36.57065 | 35017 ft | 421 kts | 36° |
| 2026-05-01 13:41 | 63.20627 | 36.65812 | 35011 ft | 422 kts | 38° |
| 2026-05-01 13:41 | 63.24496 | 36.75754 | 35017 ft | 428 kts | 43° |
| 2026-05-01 13:42 | 63.28290 | 36.85921 | 35013 ft | 428 kts | 43° |
| 2026-05-01 13:42 | 63.32085 | 36.96159 | 35011 ft | 428 kts | 44° |
| 2026-05-01 13:43 | 63.35860 | 37.06367 | 35008 ft | 428 kts | 44° |
| 2026-05-01 13:43 | 63.39641 | 37.16656 | 35004 ft | 429 kts | 44° |
| 2026-05-01 13:44 | 63.43429 | 37.26992 | 34996 ft | 429 kts | 44° |
| 2026-05-01 13:44 | 63.47196 | 37.37307 | 34984 ft | 429 kts | 44° |
| 2026-05-01 13:45 | 63.50980 | 37.47718 | 34979 ft | 429 kts | 44° |
| 2026-05-01 13:45 | 63.54740 | 37.58126 | 34973 ft | 429 kts | 44° |
| 2026-05-01 13:46 | 63.58480 | 37.68548 | 34999 ft | 430 kts | 45° |
| 2026-05-01 13:46 | 63.62236 | 37.79049 | 34971 ft | 431 kts | 45° |
| 2026-05-01 13:47 | 63.65962 | 37.89508 | 34971 ft | 431 kts | 45° |
| 2026-05-01 13:47 | 63.69722 | 38.00116 | 34970 ft | 432 kts | 45° |
| 2026-05-01 13:48 | 63.73458 | 38.10689 | 34969 ft | 432 kts | 45° |
| 2026-05-01 13:48 | 63.77210 | 38.21376 | 34971 ft | 433 kts | 45° |
| 2026-05-01 13:49 | 63.80927 | 38.32015 | 34988 ft | 433 kts | 45° |
| 2026-05-01 13:49 | 63.84668 | 38.42763 | 34975 ft | 433 kts | 45° |
| 2026-05-01 13:50 | 63.88377 | 38.53469 | 34968 ft | 434 kts | 45° |
| 2026-05-01 13:50 | 63.92115 | 38.64312 | 34968 ft | 434 kts | 45° |
| 2026-05-01 13:51 | 63.95811 | 38.75105 | 34958 ft | 434 kts | 45° |
| 2026-05-01 13:51 | 63.99529 | 38.86003 | 34994 ft | 435 kts | 46° |
| 2026-05-01 13:52 | 64.03218 | 38.96865 | 34972 ft | 435 kts | 46° |
| 2026-05-01 13:52 | 64.06929 | 39.07828 | 34966 ft | 436 kts | 46° |
| 2026-05-01 13:53 | 64.10636 | 39.18840 | 34984 ft | 436 kts | 46° |
| 2026-05-01 13:53 | 64.16153 | 39.35338 | 34979 ft | 435 kts | 46° |
| 2026-05-01 13:54 | 64.19796 | 39.46311 | 35005 ft | 434 kts | 47° |
| 2026-05-01 13:54 | 64.23469 | 39.57411 | 34980 ft | 435 kts | 47° |
| 2026-05-01 13:55 | 64.27110 | 39.68466 | 34956 ft | 435 kts | 47° |
| 2026-05-01 13:55 | 64.30758 | 39.79645 | 34946 ft | 436 kts | 47° |
| 2026-05-01 13:56 | 64.34386 | 39.90779 | 34946 ft | 436 kts | 47° |
| 2026-05-01 13:56 | 64.38023 | 40.02036 | 34960 ft | 437 kts | 47° |
| 2026-05-01 13:57 | 64.41031 | 40.11453 | 34985 ft | 437 kts | 47° |
| 2026-05-01 13:57 | 64.45241 | 40.24672 | 34962 ft | 438 kts | 47° |
| 2026-05-01 13:58 | 64.48275 | 40.34201 | 34954 ft | 438 kts | 47° |
| 2026-05-01 13:58 | 64.51865 | 40.45569 | 34955 ft | 439 kts | 48° |
| 2026-05-01 13:59 | 64.55459 | 40.57012 | 34952 ft | 439 kts | 48° |
| 2026-05-01 13:59 | 64.59059 | 40.68546 | 34952 ft | 439 kts | 48° |
| 2026-05-01 14:00 | 64.63034 | 40.79242 | 34966 ft | 435 kts | 41° |
| 2026-05-01 14:00 | 64.67115 | 40.89605 | 34956 ft | 435 kts | 42° |
| 2026-05-01 14:01 | 64.71193 | 41.00017 | 34956 ft | 436 kts | 42° |
| 2026-05-01 14:01 | 64.75290 | 41.10522 | 34952 ft | 436 kts | 42° |
| 2026-05-01 14:02 | 64.79376 | 41.21066 | 34947 ft | 436 kts | 42° |
| 2026-05-01 14:02 | 64.83433 | 41.31578 | 34978 ft | 436 kts | 43° |
| 2026-05-01 14:03 | 64.87499 | 41.42196 | 34963 ft | 436 kts | 43° |
| 2026-05-01 14:03 | 64.91551 | 41.52808 | 34948 ft | 437 kts | 43° |
| 2026-05-01 14:04 | 64.95616 | 41.63515 | 34946 ft | 437 kts | 43° |
| 2026-05-01 14:04 | 64.99645 | 41.74228 | 34942 ft | 437 kts | 43° |
| 2026-05-01 14:05 | 65.03636 | 41.84959 | 34941 ft | 437 kts | 43° |
| 2026-05-01 14:05 | 65.07670 | 41.95827 | 34955 ft | 438 kts | 43° |
| 2026-05-01 14:06 | 65.11664 | 42.06628 | 34952 ft | 438 kts | 44° |
| 2026-05-01 14:06 | 65.15678 | 42.17540 | 34943 ft | 438 kts | 44° |
| 2026-05-01 14:07 | 65.19660 | 42.28443 | 34937 ft | 438 kts | 44° |
| 2026-05-01 14:08 | 65.25761 | 42.44755 | 34937 ft | 438 kts | 42° |
| 2026-05-01 14:08 | 65.29865 | 42.55533 | 34937 ft | 438 kts | 43° |
| 2026-05-01 14:09 | 65.33922 | 42.66307 | 34933 ft | 438 kts | 43° |
| 2026-05-01 14:09 | 65.37868 | 42.77420 | 34933 ft | 440 kts | 46° |
| 2026-05-01 14:10 | 65.41585 | 42.89191 | 34928 ft | 442 kts | 48° |
| 2026-05-01 14:10 | 65.45245 | 43.01099 | 34931 ft | 442 kts | 48° |
| 2026-05-01 14:11 | 65.48926 | 43.12855 | 34956 ft | 442 kts | 47° |
| 2026-05-01 14:11 | 65.54506 | 43.30511 | 34937 ft | 442 kts | 47° |
| 2026-05-01 14:12 | 65.58229 | 43.42411 | 34940 ft | 443 kts | 48° |
| 2026-05-01 14:12 | 65.61903 | 43.54279 | 34939 ft | 443 kts | 48° |
| 2026-05-01 14:13 | 65.64997 | 43.64323 | 34933 ft | 443 kts | 48° |
| 2026-05-01 14:13 | 65.69285 | 43.78304 | 34957 ft | 443 kts | 48° |
| 2026-05-01 14:14 | 65.72964 | 43.90340 | 34944 ft | 444 kts | 48° |
| 2026-05-01 14:14 | 65.76627 | 44.02373 | 34938 ft | 444 kts | 48° |
| 2026-05-01 14:15 | 65.80293 | 44.14515 | 34939 ft | 444 kts | 49° |
| 2026-05-01 14:15 | 65.83918 | 44.26623 | 34938 ft | 444 kts | 49° |
| 2026-05-01 14:16 | 65.87488 | 44.39010 | 34937 ft | 445 kts | 50° |
| 2026-05-01 14:16 | 65.90945 | 44.51510 | 34970 ft | 445 kts | 51° |
| 2026-05-01 14:17 | 65.94407 | 44.64136 | 34959 ft | 444 kts | 51° |
| 2026-05-01 14:17 | 65.97869 | 44.76731 | 34957 ft | 444 kts | 51° |
| 2026-05-01 14:18 | 66.01311 | 44.89241 | 34949 ft | 443 kts | 51° |
| 2026-05-01 14:18 | 66.04181 | 44.99723 | 34942 ft | 443 kts | 51° |
| 2026-05-01 14:19 | 66.08198 | 45.14477 | 34959 ft | 443 kts | 51° |
| 2026-05-01 14:19 | 66.11595 | 45.27079 | 34950 ft | 444 kts | 51° |
| 2026-05-01 14:20 | 66.16710 | 45.46180 | 34946 ft | 444 kts | 51° |
| 2026-05-01 14:21 | 66.20117 | 45.58962 | 34946 ft | 444 kts | 51° |
| 2026-05-01 14:21 | 66.23482 | 45.71684 | 34944 ft | 444 kts | 51° |
| 2026-05-01 14:22 | 66.28555 | 45.91018 | 34964 ft | 444 kts | 52° |
| 2026-05-01 14:22 | 66.31893 | 46.03847 | 34956 ft | 444 kts | 52° |
| 2026-05-01 14:23 | 66.35254 | 46.16801 | 34955 ft | 444 kts | 52° |
| 2026-05-01 14:23 | 66.38589 | 46.29707 | 34951 ft | 444 kts | 52° |
| 2026-05-01 14:24 | 66.41935 | 46.42736 | 34946 ft | 444 kts | 52° |
| 2026-05-01 14:24 | 66.45248 | 46.55785 | 34976 ft | 444 kts | 53° |
| 2026-05-01 14:25 | 66.48543 | 46.68814 | 34965 ft | 444 kts | 53° |
| 2026-05-01 14:25 | 66.51851 | 46.81934 | 34959 ft | 444 kts | 53° |
| 2026-05-01 14:26 | 66.56765 | 47.01600 | 34954 ft | 445 kts | 53° |
| 2026-05-01 14:27 | 66.60034 | 47.14819 | 34952 ft | 445 kts | 53° |
| 2026-05-01 14:27 | 66.63273 | 47.27995 | 34984 ft | 445 kts | 53° |
| 2026-05-01 14:28 | 66.68163 | 47.47974 | 34957 ft | 445 kts | 54° |
| 2026-05-01 14:28 | 66.71408 | 47.61330 | 34955 ft | 446 kts | 54° |
| 2026-05-01 14:29 | 66.74615 | 47.74655 | 34954 ft | 446 kts | 55° |
| 2026-05-01 14:30 | 66.80028 | 48.03168 | 34982 ft | 450 kts | 60° |
| 2026-05-01 14:31 | 66.84035 | 48.24812 | 34957 ft | 451 kts | 60° |
| 2026-05-01 14:31 | 66.86665 | 48.39208 | 34951 ft | 452 kts | 61° |
| 2026-05-01 14:32 | 66.89302 | 48.53732 | 34949 ft | 452 kts | 61° |
| 2026-05-01 14:32 | 66.91934 | 48.68299 | 34960 ft | 452 kts | 61° |
| 2026-05-01 14:33 | 66.94545 | 48.82827 | 34956 ft | 453 kts | 62° |
| 2026-05-01 14:33 | 66.97163 | 48.97500 | 34964 ft | 453 kts | 62° |
| 2026-05-01 14:34 | 66.99749 | 49.12152 | 34954 ft | 454 kts | 62° |
| 2026-05-01 14:34 | 67.02320 | 49.26824 | 34947 ft | 454 kts | 62° |
| 2026-05-01 14:35 | 67.04888 | 49.41629 | 34949 ft | 454 kts | 62° |
| 2026-05-01 14:35 | 67.07434 | 49.56379 | 34946 ft | 454 kts | 62° |
| 2026-05-01 14:36 | 67.09982 | 49.71223 | 34947 ft | 454 kts | 63° |
| 2026-05-01 14:36 | 67.12523 | 49.86177 | 34945 ft | 454 kts | 63° |
| 2026-05-01 14:37 | 67.15033 | 50.00999 | 34947 ft | 455 kts | 63° |
| 2026-05-01 14:37 | 67.17548 | 50.15992 | 34947 ft | 455 kts | 63° |
| 2026-05-01 14:38 | 67.20025 | 50.30887 | 34948 ft | 455 kts | 63° |
| 2026-05-01 14:38 | 67.22509 | 50.45931 | 34948 ft | 455 kts | 63° |
| 2026-05-01 14:39 | 67.24971 | 50.60980 | 34963 ft | 455 kts | 64° |
| 2026-05-01 14:39 | 67.27412 | 50.76019 | 34954 ft | 455 kts | 64° |
| 2026-05-01 14:40 | 67.29847 | 50.91166 | 34950 ft | 456 kts | 64° |
| 2026-05-01 14:40 | 67.32301 | 51.06338 | 34949 ft | 456 kts | 63° |
| 2026-05-01 14:41 | 67.34788 | 51.21390 | 34951 ft | 456 kts | 63° |
| 2026-05-01 14:41 | 67.37282 | 51.36548 | 34950 ft | 456 kts | 63° |
| 2026-05-01 14:42 | 67.39745 | 51.51741 | 34957 ft | 456 kts | 64° |
| 2026-05-01 14:42 | 67.42171 | 51.66890 | 34944 ft | 457 kts | 64° |
| 2026-05-01 14:43 | 67.44612 | 51.82213 | 34941 ft | 457 kts | 64° |
| 2026-05-01 14:43 | 67.47015 | 51.97474 | 34943 ft | 457 kts | 65° |
| 2026-05-01 14:44 | 67.49402 | 52.12874 | 34942 ft | 458 kts | 65° |
| 2026-05-01 14:44 | 67.52881 | 52.36185 | 34953 ft | 458 kts | 66° |
| 2026-05-01 14:45 | 67.56324 | 52.59491 | 34945 ft | 459 kts | 66° |
| 2026-05-01 14:46 | 67.58237 | 52.72528 | 34945 ft | 460 kts | 66° |
| 2026-05-01 14:46 | 67.62013 | 52.98579 | 34942 ft | 460 kts | 66° |
| 2026-05-01 14:47 | 67.64158 | 53.11351 | 34941 ft | 456 kts | 56° |
| 2026-05-01 14:48 | 67.69852 | 53.31139 | 34937 ft | 454 kts | 49° |
| 2026-05-01 14:48 | 67.75730 | 53.50849 | 34934 ft | 455 kts | 50° |
| 2026-05-01 14:49 | 67.83492 | 53.77234 | 34933 ft | 455 kts | 50° |
| 2026-05-01 14:50 | 67.91236 | 54.03835 | 34943 ft | 456 kts | 50° |
| 2026-05-01 14:51 | 67.97022 | 54.24054 | 34937 ft | 457 kts | 51° |
| 2026-05-01 14:52 | 68.02766 | 54.44340 | 34935 ft | 457 kts | 51° |
| 2026-05-01 14:53 | 68.08477 | 54.64715 | 34956 ft | 458 kts | 51° |
| 2026-05-01 14:53 | 68.12284 | 54.78441 | 34952 ft | 458 kts | 51° |
| 2026-05-01 14:54 | 68.16072 | 54.92140 | 34939 ft | 459 kts | 51° |
| 2026-05-01 14:54 | 68.19882 | 55.05986 | 34950 ft | 459 kts | 51° |
| 2026-05-01 14:55 | 68.23664 | 55.19751 | 34944 ft | 459 kts | 51° |
| 2026-05-01 14:55 | 68.27430 | 55.33551 | 34951 ft | 459 kts | 52° |
| 2026-05-01 14:56 | 68.31211 | 55.47535 | 34935 ft | 460 kts | 52° |
| 2026-05-01 14:56 | 68.34979 | 55.61559 | 34934 ft | 460 kts | 52° |
| 2026-05-01 14:57 | 68.38721 | 55.75560 | 34935 ft | 461 kts | 52° |
| 2026-05-01 14:57 | 68.44351 | 55.96775 | 34935 ft | 461 kts | 52° |
| 2026-05-01 14:58 | 68.48078 | 56.10930 | 34947 ft | 461 kts | 53° |
| 2026-05-01 14:58 | 68.51821 | 56.25229 | 34937 ft | 462 kts | 53° |
| 2026-05-01 14:59 | 68.55520 | 56.39476 | 34936 ft | 463 kts | 53° |
| 2026-05-01 14:59 | 68.59233 | 56.53903 | 34937 ft | 463 kts | 53° |
| 2026-05-01 15:00 | 68.64770 | 56.75543 | 34938 ft | 463 kts | 53° |
| 2026-05-01 15:01 | 68.68459 | 56.90097 | 34951 ft | 464 kts | 54° |
| 2026-05-01 15:01 | 68.72119 | 57.04615 | 34941 ft | 464 kts | 54° |
| 2026-05-01 15:02 | 68.75813 | 57.19256 | 34940 ft | 465 kts | 54° |
| 2026-05-01 15:02 | 68.79475 | 57.33882 | 34940 ft | 465 kts | 54° |
| 2026-05-01 15:03 | 68.83151 | 57.48657 | 34941 ft | 465 kts | 54° |
| 2026-05-01 15:03 | 68.86803 | 57.63463 | 34946 ft | 465 kts | 54° |
| 2026-05-01 15:04 | 68.90426 | 57.78257 | 34948 ft | 466 kts | 54° |
| 2026-05-01 15:04 | 68.94085 | 57.93022 | 34950 ft | 465 kts | 53° |
| 2026-05-01 15:05 | 68.97832 | 58.07733 | 34950 ft | 465 kts | 53° |
| 2026-05-01 15:05 | 69.01556 | 58.22432 | 34952 ft | 466 kts | 53° |
| 2026-05-01 15:06 | 69.05261 | 58.37275 | 34952 ft | 466 kts | 54° |
| 2026-05-01 15:06 | 69.08938 | 58.52221 | 34954 ft | 466 kts | 54° |
| 2026-05-01 15:07 | 69.12596 | 58.67168 | 34949 ft | 467 kts | 54° |
| 2026-05-01 15:07 | 69.16268 | 58.82216 | 34953 ft | 467 kts | 54° |
| 2026-05-01 15:08 | 69.19925 | 58.97329 | 34953 ft | 467 kts | 55° |
| 2026-05-01 15:08 | 69.23497 | 59.12583 | 34956 ft | 468 kts | 56° |
| 2026-05-01 15:09 | 69.27015 | 59.28125 | 34964 ft | 468 kts | 57° |
| 2026-05-01 15:09 | 69.30496 | 59.43595 | 34966 ft | 469 kts | 57° |
| 2026-05-01 15:10 | 69.34003 | 59.59173 | 34967 ft | 469 kts | 57° |
| 2026-05-01 15:10 | 69.39232 | 59.82527 | 34964 ft | 469 kts | 57° |
| 2026-05-01 15:11 | 69.44435 | 60.06111 | 34958 ft | 469 kts | 57° |
| 2026-05-01 15:12 | 69.47877 | 60.21875 | 34954 ft | 469 kts | 57° |
| 2026-05-01 15:12 | 69.53016 | 60.45590 | 34951 ft | 470 kts | 58° |
| 2026-05-01 15:14 | 69.61491 | 60.84973 | 34953 ft | 470 kts | 58° |
| 2026-05-01 15:14 | 69.66604 | 61.09071 | 34957 ft | 471 kts | 58° |
| 2026-05-01 15:15 | 69.73358 | 61.41325 | 34956 ft | 471 kts | 59° |
| 2026-05-01 15:16 | 69.78695 | 61.75685 | 34952 ft | 471 kts | 71° |
| 2026-05-01 15:18 | 69.83847 | 62.20774 | 34949 ft | 471 kts | 72° |
| 2026-05-01 15:19 | 69.87883 | 62.56909 | 34948 ft | 472 kts | 72° |
| 2026-05-01 15:19 | 69.90865 | 62.84136 | 34950 ft | 472 kts | 72° |
| 2026-05-01 15:20 | 69.93807 | 63.11434 | 34946 ft | 472 kts | 73° |
| 2026-05-01 15:21 | 69.95751 | 63.29753 | 34949 ft | 472 kts | 73° |
| 2026-05-01 15:21 | 69.97663 | 63.48011 | 34948 ft | 472 kts | 73° |
| 2026-05-01 15:22 | 70.00513 | 63.75634 | 34951 ft | 472 kts | 73° |
| 2026-05-01 15:22 | 70.02386 | 63.93975 | 34950 ft | 473 kts | 73° |
| 2026-05-01 15:23 | 70.04245 | 64.12434 | 34950 ft | 473 kts | 74° |
| 2026-05-01 15:23 | 70.06083 | 64.30891 | 34951 ft | 473 kts | 74° |
| 2026-05-01 15:24 | 70.07908 | 64.49445 | 34955 ft | 473 kts | 74° |
| 2026-05-01 15:24 | 70.09713 | 64.68082 | 34957 ft | 474 kts | 75° |
| 2026-05-01 15:25 | 70.11485 | 64.86614 | 34960 ft | 474 kts | 75° |
| 2026-05-01 15:25 | 70.13251 | 65.05294 | 34958 ft | 474 kts | 75° |
| 2026-05-01 15:26 | 70.14990 | 65.23901 | 34957 ft | 474 kts | 75° |
| 2026-05-01 15:26 | 70.16717 | 65.42635 | 34956 ft | 474 kts | 75° |
| 2026-05-01 15:27 | 70.18426 | 65.61429 | 34955 ft | 474 kts | 75° |
| 2026-05-01 15:28 | 70.20943 | 65.89560 | 34953 ft | 474 kts | 76° |
| 2026-05-01 15:28 | 70.22586 | 66.08413 | 34955 ft | 474 kts | 76° |
| 2026-05-01 15:29 | 70.24905 | 66.36764 | 34951 ft | 474 kts | 77° |
| 2026-05-01 15:30 | 70.27645 | 66.71604 | 34951 ft | 474 kts | 77° |
| 2026-05-01 15:31 | 70.32252 | 67.31867 | 34956 ft | 474 kts | 78° |
| 2026-05-01 15:32 | 70.35073 | 67.70251 | 32180 ft | 483 kts | 78° |
| 2026-05-01 15:33 | 70.37103 | 67.98602 | 29178 ft | 447 kts | 78° |
| 2026-05-01 15:34 | 70.39027 | 68.25401 | 26266 ft | 442 kts | 73° |